Time,TemperatureF,DewpointF,PressureIn,WindDirection,WindDirectionDegrees,WindSpeedMPH,WindSpeedGustMPH,Humidity,HourlyPrecipIn,Conditions,Clouds,dailyrainin,SoftwareType,DateUTC
2013-08-01 00:09:00,90.7,72.3,29.94,NE,38,9.0,0.0,55,0.00,CLR,,0.00,WeatherDisplay:10.37,2013-08-01 05:09:00,
2013-08-01 00:19:00,90.7,72.8,29.93,NE,50,10.0,0.0,56,0.00,CLR,,0.00,WeatherDisplay:10.37,2013-08-01 05:19:00,
2013-08-01 00:29:00,90.5,72.7,29.93,ENE,64,3.0,0.0,56,0.00,CLR,,0.00,WeatherDisplay:10.37,2013-08-01 05:29:00,
2013-08-01 00:39:00,90.1,72.8,29.93,East,88,2.0,0.0,57,0.00,CLR,,0.00,WeatherDisplay:10.37,2013-08-01 05:39:00,
2013-08-01 00:49:00,89.9,72.1,29.93,ENE,61,3.0,0.0,56,0.00,CLR,,0.00,WeatherDisplay:10.37,2013-08-01 05:49:00,
2013-08-01 00:59:00,89.6,71.8,29.93,NNE,20,3.0,0.0,56,0.00,CLR,,0.00,WeatherDisplay:10.37,2013-08-01 05:59:00,
2013-08-01 01:09:00,89.2,72.0,29.93,NNE,26,5.0,0.0,57,0.00,CLR,,0.00,WeatherDisplay:10.37,2013-08-01 06:09:00,
2013-08-01 01:19:00,89.1,71.8,29.92,ENE,59,3.0,0.0,57,0.00,CLR,,0.00,WeatherDisplay:10.37,2013-08-01 06:19:00,
2013-08-01 01:29:00,88.9,72.2,29.92,ENE,63,5.0,0.0,58,0.00,CLR,,0.00,WeatherDisplay:10.37,2013-08-01 06:29:00,
2013-08-01 01:39:00,88.5,72.4,29.92,NE,38,6.0,0.0,59,0.00,CLR,,0.00,WeatherDisplay:10.37,2013-08-01 06:39:00,
2013-08-01 01:49:00,88.5,72.4,29.92,NNE,25,5.0,0.0,59,0.00,CLR,,0.00,WeatherDisplay:10.37,2013-08-01 06:49:00,
2013-08-01 01:59:00,88.3,72.2,29.92,NNE,23,3.0,0.0,59,0.00,CLR,,0.00,WeatherDisplay:10.37,2013-08-01 06:59:00,
2013-08-01 02:09:00,88.2,72.5,29.92,NNE,26,2.0,0.0,60,0.00,CLR,,0.00,WeatherDisplay:10.37,2013-08-01 07:09:00,
2013-08-01 02:19:00,88.0,72.4,29.93,NNE,24,6.0,0.0,60,0.00,CLR,,0.00,WeatherDisplay:10.37,2013-08-01 07:19:00,
2013-08-01 02:29:00,87.8,72.2,29.93,NE,36,3.0,0.0,60,0.00,CLR,,0.00,WeatherDisplay:10.37,2013-08-01 07:29:00,
2013-08-01 02:39:00,87.8,72.1,29.93,NE,51,5.0,0.0,60,0.00,CLR,,0.00,WeatherDisplay:10.37,2013-08-01 07:39:00,
2013-08-01 02:49:00,87.4,71.8,29.93,NE,39,6.0,0.0,60,0.00,CLR,,0.00,WeatherDisplay:10.37,2013-08-01 07:49:00,
2013-08-01 03:39:00,86.4,71.3,29.92,NE,44,3.0,0.0,61,0.00,CLR,,0.00,WeatherDisplay:10.37,2013-08-01 08:39:00,
2013-08-01 03:49:00,86.0,71.4,29.92,ENE,72,1.0,0.0,62,0.00,CLR,,0.00,WeatherDisplay:10.37,2013-08-01 08:49:00,
2013-08-01 03:59:00,85.6,71.6,29.92,NE,52,6.0,0.0,63,0.00,CLR,,0.00,WeatherDisplay:10.37,2013-08-01 08:59:00,
2013-08-01 04:09:00,85.6,72.1,29.92,NE,46,2.0,0.0,64,0.00,CLR,,0.00,WeatherDisplay:10.37,2013-08-01 09:09:00,
2013-08-01 04:39:00,84.9,72.3,29.92,ENE,64,6.0,0.0,66,0.00,CLR,,0.00,WeatherDisplay:10.37,2013-08-01 09:39:00,
2013-08-01 04:49:00,84.6,72.4,29.93,ENE,67,5.0,0.0,67,0.00,CLR,,0.00,WeatherDisplay:10.37,2013-08-01 09:49:00,
2013-08-01 05:09:00,84.0,72.3,29.92,East,101,3.0,0.0,68,0.00,CLR,,0.00,WeatherDisplay:10.37,2013-08-01 10:09:00,
2013-08-01 05:19:00,83.7,71.5,29.92,East,100,0.0,0.0,67,0.00,CLR,,0.00,WeatherDisplay:10.37,2013-08-01 10:19:00,
2013-08-01 05:59:00,82.4,71.2,29.93,NE,34,1.0,0.0,69,0.00,CLR,,0.00,WeatherDisplay:10.37,2013-08-01 10:59:00,
2013-08-01 06:09:00,82.4,71.2,29.93,ENE,72,0.0,0.0,69,0.00,CLR,,0.00,WeatherDisplay:10.37,2013-08-01 11:09:00,
2013-08-01 06:29:00,82.0,70.8,29.94,NNE,26,2.0,0.0,69,0.00,CLR,,0.00,WeatherDisplay:10.37,2013-08-01 11:29:00,
2013-08-01 06:59:00,81.9,71.5,29.94,NE,54,3.0,0.0,71,0.00,CLR,,0.00,WeatherDisplay:10.37,2013-08-01 11:59:00,
2013-08-01 07:19:00,81.9,71.5,29.95,NNE,22,5.0,0.0,71,0.00,CLR,,0.00,WeatherDisplay:10.37,2013-08-01 12:19:00,
2013-08-01 07:29:00,81.9,71.9,29.95,NE,51,1.0,0.0,72,0.00,CLR,,0.00,WeatherDisplay:10.37,2013-08-01 12:29:00,
2013-08-01 07:49:00,82.0,72.5,29.96,ENE,57,3.0,0.0,73,0.00,CLR,,0.00,WeatherDisplay:10.37,2013-08-01 12:49:00,
2013-08-01 07:59:00,82.2,72.7,29.96,NE,49,3.0,0.0,73,0.00,CLR,,0.00,WeatherDisplay:10.37,2013-08-01 12:59:00,
2013-08-01 08:09:00,82.3,73.1,29.96,NE,44,5.0,0.0,74,0.00,CLR,,0.00,WeatherDisplay:10.37,2013-08-01 13:09:00,
2013-08-01 08:19:00,82.4,73.3,29.96,ENE,69,2.0,0.0,74,0.00,CLR,,0.00,WeatherDisplay:10.37,2013-08-01 13:19:00,
2013-08-01 08:29:00,82.6,73.4,29.96,ENE,73,3.0,0.0,74,0.00,CLR,,0.00,WeatherDisplay:10.37,2013-08-01 13:29:00,
2013-08-01 09:09:00,84.4,74.4,29.96,East,86,3.0,0.0,72,0.00,CLR,,0.00,WeatherDisplay:10.37,2013-08-01 14:09:00,
2013-08-01 09:19:00,84.9,74.5,29.96,NE,45,5.0,0.0,71,0.00,CLR,,0.00,WeatherDisplay:10.37,2013-08-01 14:19:00,
2013-08-01 09:29:00,85.3,74.4,29.96,NE,54,2.0,0.0,70,0.00,CLR,,0.00,WeatherDisplay:10.37,2013-08-01 14:29:00,
2013-08-01 09:39:00,85.8,74.5,29.96,ESE,117,1.0,0.0,69,0.00,CLR,,0.00,WeatherDisplay:10.37,2013-08-01 14:39:00,
2013-08-01 09:49:00,86.4,74.5,29.96,ESE,102,2.0,0.0,68,0.00,CLR,,0.00,WeatherDisplay:10.37,2013-08-01 14:49:00,
2013-08-01 09:59:00,87.1,74.8,29.96,NE,51,6.0,0.0,67,0.00,CLR,,0.00,WeatherDisplay:10.37,2013-08-01 14:59:00,
2013-08-01 10:09:00,87.3,74.5,29.96,NNE,33,3.0,0.0,66,0.00,CLR,,0.00,WeatherDisplay:10.37,2013-08-01 15:09:00,
2013-08-01 10:29:00,88.3,74.6,29.96,North,4,3.0,0.0,64,0.00,CLR,,0.00,WeatherDisplay:10.37,2013-08-01 15:29:00,
2013-08-01 10:39:00,88.9,75.2,29.96,NE,55,6.0,0.0,64,0.00,CLR,,0.00,WeatherDisplay:10.37,2013-08-01 15:39:00,
2013-08-01 10:49:00,89.2,75.5,29.97,ENE,78,2.0,0.0,64,0.00,CLR,,0.00,WeatherDisplay:10.37,2013-08-01 15:49:00,
2013-08-01 10:59:00,90.1,75.8,29.96,NE,34,7.0,0.0,63,0.00,CLR,,0.00,WeatherDisplay:10.37,2013-08-01 15:59:00,
2013-08-01 11:19:00,91.2,75.9,29.97,NE,48,3.0,0.0,61,0.00,CLR,,0.00,WeatherDisplay:10.37,2013-08-01 16:19:00,
2013-08-01 12:29:00,95.0,76.3,29.95,NNE,32,7.0,0.0,55,0.00,CLR,,0.00,WeatherDisplay:10.37,2013-08-01 17:29:00,
2013-08-01 12:49:00,95.7,76.4,29.95,ENE,70,2.0,0.0,54,0.00,CLR,,0.00,WeatherDisplay:10.37,2013-08-01 17:49:00,
2013-08-01 13:49:00,98.1,76.8,29.93,SE,126,3.0,0.0,51,0.00,CLR,,0.00,WeatherDisplay:10.37,2013-08-01 18:49:00,
2013-08-01 14:29:00,98.5,76.0,29.92,ENE,76,6.0,0.0,49,0.00,CLR,,0.00,WeatherDisplay:10.37,2013-08-01 19:29:00,
2013-08-01 14:59:00,99.7,75.9,29.91,NNE,24,3.0,0.0,47,0.00,CLR,,0.00,WeatherDisplay:10.37,2013-08-01 19:59:00,
2013-08-01 15:09:00,99.7,75.2,29.91,East,94,6.0,0.0,46,0.00,CLR,,0.00,WeatherDisplay:10.37,2013-08-01 20:09:00,
2013-08-01 15:29:00,99.0,73.9,29.90,NNE,15,2.0,0.0,45,0.00,CLR,,0.00,WeatherDisplay:10.37,2013-08-01 20:29:00,
2013-08-01 15:39:00,98.8,73.8,29.90,NNW,339,7.0,0.0,45,0.00,CLR,,0.00,WeatherDisplay:10.37,2013-08-01 20:39:00,
2013-08-01 15:49:00,99.7,73.9,29.90,NNW,333,7.0,0.0,44,0.00,CLR,,0.00,WeatherDisplay:10.37,2013-08-01 20:49:00,
2013-08-01 16:09:00,100.2,73.6,29.89,NNE,22,2.0,0.0,43,0.00,CLR,,0.00,WeatherDisplay:10.37,2013-08-01 21:09:00,
2013-08-01 16:19:00,99.9,73.4,29.89,NNE,29,7.0,0.0,43,0.00,CLR,,0.00,WeatherDisplay:10.37,2013-08-01 21:19:00,
2013-08-01 16:29:00,100.4,73.9,29.88,SE,124,7.0,0.0,43,0.00,CLR,,0.00,WeatherDisplay:10.37,2013-08-01 21:29:00,
2013-08-01 16:39:00,100.8,73.5,29.88,ENE,78,8.0,0.0,42,0.00,CLR,,0.00,WeatherDisplay:10.37,2013-08-01 21:39:00,
2013-08-01 16:49:00,101.1,73.8,29.87,SSE,164,1.0,0.0,42,0.00,CLR,,0.00,WeatherDisplay:10.37,2013-08-01 21:49:00,
2013-08-01 16:59:00,101.3,73.2,29.87,ESE,102,8.0,0.0,41,0.00,CLR,,0.00,WeatherDisplay:10.37,2013-08-01 21:59:00,
2013-08-01 17:09:00,101.7,73.6,29.87,SSE,148,5.0,0.0,41,0.00,CLR,,0.00,WeatherDisplay:10.37,2013-08-01 22:09:00,
2013-08-01 17:19:00,101.8,73.0,29.87,NE,40,6.0,0.0,40,0.00,CLR,,0.00,WeatherDisplay:10.37,2013-08-01 22:19:00,
2013-08-01 17:39:00,101.8,73.0,29.86,NE,46,6.0,0.0,40,0.00,CLR,,0.00,WeatherDisplay:10.37,2013-08-01 22:39:00,
2013-08-01 17:49:00,101.7,72.1,29.86,ENE,59,3.0,0.0,39,0.00,CLR,,0.00,WeatherDisplay:10.37,2013-08-01 22:49:00,
2013-08-01 17:59:00,101.3,71.8,29.86,SE,146,5.0,0.0,39,0.00,CLR,,0.00,WeatherDisplay:10.37,2013-08-01 22:59:00,
2013-08-01 18:08:00,101.6,72.0,29.85,East,96,10.0,0.0,39,0.00,CLR,,0.00,WeatherDisplay:10.37,2013-08-01 23:08:00,
2013-08-01 18:19:00,101.7,71.3,29.85,NE,38,2.0,0.0,38,0.00,CLR,,0.00,WeatherDisplay:10.37,2013-08-01 23:19:00,
2013-08-01 18:29:00,101.8,71.5,29.85,ENE,68,5.0,0.0,38,0.00,CLR,,0.00,WeatherDisplay:10.37,2013-08-01 23:29:00,
2013-08-01 18:39:00,101.7,71.3,29.84,NE,50,8.0,0.0,38,0.00,CLR,,0.00,WeatherDisplay:10.37,2013-08-01 23:39:00,
2013-08-01 18:59:00,101.7,71.3,29.84,ENE,75,3.0,0.0,38,0.00,CLR,,0.00,WeatherDisplay:10.37,2013-08-01 23:59:00,
2013-08-01 19:09:00,102.0,71.6,29.85,ESE,110,5.0,0.0,38,0.00,CLR,,0.00,WeatherDisplay:10.37,2013-08-02 00:09:00,
2013-08-01 19:19:00,101.8,70.7,29.85,East,87,7.0,0.0,37,0.00,CLR,,0.00,WeatherDisplay:10.37,2013-08-02 00:19:00,
2013-08-01 19:29:00,101.4,71.1,29.85,NE,49,5.0,0.0,38,0.00,CLR,,0.00,WeatherDisplay:10.37,2013-08-02 00:29:00,
2013-08-01 19:39:00,100.7,70.5,29.85,East,79,3.0,0.0,38,0.00,CLR,,0.00,WeatherDisplay:10.37,2013-08-02 00:39:00,
2013-08-01 19:49:00,99.9,70.5,29.85,ENE,77,6.0,0.0,39,0.00,CLR,,0.00,WeatherDisplay:10.37,2013-08-02 00:49:00,
2013-08-01 19:58:00,99.1,69.8,29.85,East,86,2.0,0.0,39,0.00,CLR,,0.00,WeatherDisplay:10.37,2013-08-02 00:58:00,
2013-08-01 20:19:00,97.9,69.5,29.86,East,96,3.0,0.0,40,0.00,CLR,,0.00,WeatherDisplay:10.37,2013-08-02 01:19:00,
2013-08-01 20:28:00,97.3,69.0,29.87,East,94,3.0,0.0,40,0.00,CLR,,0.00,WeatherDisplay:10.37,2013-08-02 01:28:00,
2013-08-01 20:38:00,97.0,68.7,29.87,ENE,71,3.0,0.0,40,0.00,CLR,,0.00,WeatherDisplay:10.37,2013-08-02 01:38:00,
2013-08-01 20:49:00,96.3,69.4,29.87,NE,55,7.0,0.0,42,0.00,CLR,,0.00,WeatherDisplay:10.37,2013-08-02 01:49:00,
2013-08-01 20:59:00,95.9,69.8,29.87,ENE,73,9.0,0.0,43,0.00,CLR,,0.00,WeatherDisplay:10.37,2013-08-02 01:59:00,
2013-08-01 21:09:00,95.4,70.7,29.87,East,98,7.0,0.0,45,0.00,CLR,,0.00,WeatherDisplay:10.37,2013-08-02 02:09:00,
2013-08-01 21:28:00,95.2,71.1,29.87,East,85,6.0,0.0,46,0.00,CLR,,0.00,WeatherDisplay:10.37,2013-08-02 02:28:00,
2013-08-01 21:48:00,94.6,70.6,29.87,ENE,77,7.0,0.0,46,0.00,CLR,,0.00,WeatherDisplay:10.37,2013-08-02 02:48:00,
2013-08-01 21:59:00,94.3,70.3,29.87,ESE,103,8.0,0.0,46,0.00,CLR,,0.00,WeatherDisplay:10.37,2013-08-02 02:59:00,
2013-08-01 22:09:00,93.9,70.0,29.87,South,187,7.0,0.0,46,0.00,CLR,,0.00,WeatherDisplay:10.37,2013-08-02 03:09:00,
2013-08-01 22:19:00,93.7,70.5,29.88,ESE,114,9.0,0.0,47,0.00,CLR,,0.00,WeatherDisplay:10.37,2013-08-02 03:19:00,
2013-08-01 22:29:00,93.4,70.1,29.88,ENE,74,8.0,0.0,47,0.00,CLR,,0.00,WeatherDisplay:10.37,2013-08-02 03:29:00,
2013-08-01 22:39:00,93.2,69.9,29.88,ENE,63,5.0,0.0,47,0.00,CLR,,0.00,WeatherDisplay:10.37,2013-08-02 03:39:00,
2013-08-01 22:49:00,92.8,70.3,29.88,ESE,112,12.0,0.0,48,0.00,CLR,,0.00,WeatherDisplay:10.37,2013-08-02 03:49:00,
2013-08-01 22:59:00,92.5,69.9,29.89,ESE,123,9.0,0.0,48,0.00,CLR,,0.00,WeatherDisplay:10.37,2013-08-02 03:59:00,
2013-08-01 23:09:00,92.1,70.2,29.89,East,87,8.0,0.0,49,0.00,CLR,,0.00,WeatherDisplay:10.37,2013-08-02 04:09:00,
2013-08-01 23:19:00,91.8,70.5,29.89,ESE,104,12.0,0.0,50,0.00,CLR,,0.00,WeatherDisplay:10.37,2013-08-02 04:19:00,
2013-08-01 23:29:00,91.2,70.0,29.88,East,96,9.0,0.0,50,0.00,CLR,,0.00,WeatherDisplay:10.37,2013-08-02 04:29:00,
2013-08-01 23:39:00,90.7,70.1,29.88,SSW,195,7.0,0.0,51,0.00,CLR,,0.00,WeatherDisplay:10.37,2013-08-02 04:39:00,
2013-08-01 23:49:00,90.3,70.3,29.88,SSE,151,14.0,0.0,52,0.00,CLR,,0.00,WeatherDisplay:10.37,2013-08-02 04:49:00,
2013-08-01 23:59:00,89.8,69.8,29.89,ESE,115,7.0,0.0,52,0.00,CLR,,0.00,WeatherDisplay:10.37,2013-08-02 04:59:00,